Akhmed Mahmudov — 9HZS8 — position and weather

sailwx.info

Track history (hours):
 
Tides and Currents Weather Stations Pressure Air Temp Water Temp Dewpoint Dewpoint Depression Visibility Wind Speed Wind Dir Waves Ship Positions

Akhmed Mahmudov

Last reported at 2017-Dec-09 04:27 UTC. Time now 2017-Dec-11 00:14 UTC.
Position N 38°48' E 008°44'.

Length 121 m; draft 4.8 m.

Type: Cargo ship. MMSI: 256652000.

Date/timePositionNaut miles runAvg speedWind from/ knotsBaromVisibWave heightAir tempDewpointWater temp
2017-Dec-09 04:27N 38°48' E 008°44'4 8.6
2017-Dec-09 04:00N 38°48' E 008°48'5 8.5
2017-Dec-09 03:26N 38°48' E 008°55'14 8.6
2017-Dec-09 01:51N 38°52' E 009°12'3 8.3
2017-Dec-09 01:28N 38°52' E 009°16'168 8.5
2017-Dec-08 05:38N 38°28' E 012°49'3 9.0
2017-Dec-08 05:19N 38°28' E 012°52'3 9.2
2017-Dec-08 05:00N 38°28' E 012°56'5 9.2
2017-Dec-08 04:30N 38°27' E 013°02'5 9.2
2017-Dec-08 04:01N 38°27' E 013°08'5 9.0
2017-Dec-08 03:30N 38°26' E 013°14'4 8.9
2017-Dec-08 03:01N 38°26' E 013°19'4 8.9
2017-Dec-08 02:31N 38°25' E 013°25'5 9.0
2017-Dec-08 02:01N 38°25' E 013°30'4 9.0
2017-Dec-08 01:31N 38°24' E 013°36'5 9.1
2017-Dec-08 01:00N 38°24' E 013°42'5 9.0
2017-Dec-08 00:25N 38°23' E 013°49'5 9.0
2017-Dec-07 23:51N 38°23' E 013°55'49 9.0
2017-Dec-07 18:25N 38°18' E 014°57'5 9.2
2017-Dec-07 17:55N 38°18' E 015°03'4 9.1
2017-Dec-07 17:27N 38°18' E 015°09'4 9.1
2017-Dec-07 17:00N 38°19' E 015°14'4 9.1
2017-Dec-07 16:30N 38°20' E 015°19'5 9.2
2017-Dec-07 16:00N 38°20' E 015°25'5 9.0
2017-Dec-07 15:30N 38°20' E 015°31'4 8.0
2017-Dec-07 15:00N 38°20' E 015°36'4 8.3
2017-Dec-07 14:30N 38°18' E 015°40'4 5.1
2017-Dec-07 13:46N 38°14' E 015°38'1 5.7
2017-Dec-07 13:30N 38°13' E 015°37'5 9.0
2017-Dec-07 13:00N 38°09' E 015°37'4 8.6
2017-Dec-07 12:30N 38°04' E 015°36'5 8.6
2017-Dec-07 11:56N 37°59' E 015°36'4 7.9
2017-Dec-07 11:28N 37°56' E 015°38'4 8.6
2017-Dec-07 11:00N 37°53' E 015°42'  
2017-Dec-04 09:07N 37°23' E 023°56'1 9.1
2017-Dec-04 08:59N 37°25' E 023°57'5 8.9
2017-Dec-04 08:26N 37°29' E 024°00'4 8.8
2017-Dec-04 08:00N 37°32' E 024°03'5 9.1
2017-Dec-04 07:30N 37°35' E 024°07'5 9.5
2017-Dec-04 06:59N 37°39' E 024°11'7 9.4
2017-Dec-04 06:15N 37°44' E 024°17'11 9.5
2017-Dec-04 05:04N 37°52' E 024°27'1 9.1
2017-Dec-04 05:00N 37°52' E 024°28'  
2017-Nov-29 09:54N 45°12' E 036°28'3 8.4
2017-Nov-29 09:30N 45°16' E 036°28'4 6.2
2017-Nov-29 08:56N 45°19' E 036°31'3 7.0
2017-Nov-29 08:30N 45°20' E 036°35'3 6.9
2017-Nov-29 08:00N 45°21' E 036°39'4 7.0
2017-Nov-29 07:30N 45°25' E 036°41'3 6.7
2017-Nov-29 07:00N 45°28' E 036°39'0 0.2
2017-Nov-29 06:27N 45°28' E 036°39'0 0.0
2017-Nov-29 05:57N 45°28' E 036°39'0 0.0
2017-Nov-29 05:30N 45°28' E 036°39'0 0.0
2017-Nov-29 05:00N 45°28' E 036°39'0 0.0
2017-Nov-29 04:30N 45°28' E 036°39'  
Track history (hours):
 
Tides and Currents Weather Stations Pressure Air Temp Water Temp Dewpoint Dewpoint Depression Visibility Wind Speed Wind Dir Waves Ship Positions

Akhmed Mahmudov

Last reported at 2017-Dec-09 04:27 UTC. Time now 2017-Dec-11 00:14 UTC.
Position N 38°48' E 008°44'.

Length 121 m; draft 4.8 m.

Type: Cargo ship. MMSI: 256652000.

Date/timePositionNaut miles runAvg speedWind from/ knotsBaromVisibWave heightAir tempDewpointWater temp
2017-Dec-09 04:27N 38°48' E 008°44'4 8.6
2017-Dec-09 04:00N 38°48' E 008°48'5 8.5
2017-Dec-09 03:26N 38°48' E 008°55'14 8.6
2017-Dec-09 01:51N 38°52' E 009°12'3 8.3
2017-Dec-09 01:28N 38°52' E 009°16'168 8.5
2017-Dec-08 05:38N 38°28' E 012°49'3 9.0
2017-Dec-08 05:19N 38°28' E 012°52'3 9.2
2017-Dec-08 05:00N 38°28' E 012°56'5 9.2
2017-Dec-08 04:30N 38°27' E 013°02'5 9.2
2017-Dec-08 04:01N 38°27' E 013°08'5 9.0
2017-Dec-08 03:30N 38°26' E 013°14'4 8.9
2017-Dec-08 03:01N 38°26' E 013°19'4 8.9
2017-Dec-08 02:31N 38°25' E 013°25'5 9.0
2017-Dec-08 02:01N 38°25' E 013°30'4 9.0
2017-Dec-08 01:31N 38°24' E 013°36'5 9.1
2017-Dec-08 01:00N 38°24' E 013°42'5 9.0
2017-Dec-08 00:25N 38°23' E 013°49'5 9.0
2017-Dec-07 23:51N 38°23' E 013°55'49 9.0
2017-Dec-07 18:25N 38°18' E 014°57'5 9.2
2017-Dec-07 17:55N 38°18' E 015°03'4 9.1
2017-Dec-07 17:27N 38°18' E 015°09'4 9.1
2017-Dec-07 17:00N 38°19' E 015°14'4 9.1
2017-Dec-07 16:30N 38°20' E 015°19'5 9.2
2017-Dec-07 16:00N 38°20' E 015°25'5 9.0
2017-Dec-07 15:30N 38°20' E 015°31'4 8.0
2017-Dec-07 15:00N 38°20' E 015°36'4 8.3
2017-Dec-07 14:30N 38°18' E 015°40'4 5.1
2017-Dec-07 13:46N 38°14' E 015°38'1 5.7
2017-Dec-07 13:30N 38°13' E 015°37'5 9.0
2017-Dec-07 13:00N 38°09' E 015°37'4 8.6
2017-Dec-07 12:30N 38°04' E 015°36'5 8.6
2017-Dec-07 11:56N 37°59' E 015°36'4 7.9
2017-Dec-07 11:28N 37°56' E 015°38'4 8.6
2017-Dec-07 11:00N 37°53' E 015°42'  
2017-Dec-04 09:07N 37°23' E 023°56'1 9.1
2017-Dec-04 08:59N 37°25' E 023°57'5 8.9
2017-Dec-04 08:26N 37°29' E 024°00'4 8.8
2017-Dec-04 08:00N 37°32' E 024°03'5 9.1
2017-Dec-04 07:30N 37°35' E 024°07'5 9.5
2017-Dec-04 06:59N 37°39' E 024°11'7 9.4
2017-Dec-04 06:15N 37°44' E 024°17'11 9.5
2017-Dec-04 05:04N 37°52' E 024°27'1 9.1
2017-Dec-04 05:00N 37°52' E 024°28'  
2017-Nov-29 09:54N 45°12' E 036°28'3 8.4
2017-Nov-29 09:30N 45°16' E 036°28'4 6.2
2017-Nov-29 08:56N 45°19' E 036°31'3 7.0
2017-Nov-29 08:30N 45°20' E 036°35'3 6.9
2017-Nov-29 08:00N 45°21' E 036°39'4 7.0
2017-Nov-29 07:30N 45°25' E 036°41'3 6.7
2017-Nov-29 07:00N 45°28' E 036°39'0 0.2
2017-Nov-29 06:27N 45°28' E 036°39'0 0.0
2017-Nov-29 05:57N 45°28' E 036°39'0 0.0
2017-Nov-29 05:30N 45°28' E 036°39'0 0.0
2017-Nov-29 05:00N 45°28' E 036°39'0 0.0
2017-Nov-29 04:30N 45°28' E 036°39'  

Dump ship's entire track history